Flight Track Log - Related Links

Times and Time Zones

All times are in EDT time to prevent confusion due to time zone crossing. See the JBU56 flight status page for this flight to view local times or setup timezone preferences in your user account.

Time Position Orientation Groundspeed Altitude Reporting Facility
EDT Latitude Longitude Course Direction KTS MPH feet Rate Location/Type
Tue 09:13:31 AM 38.9667 -77.4333 67° East 152 175 1,800  Level Potomac TRACON
Tue 09:14:31 AM 39.0167 -77.4333 360° North 211 243 4,100 2,650 Climbing Potomac TRACON
Tue 09:15:31 AM 39.0833 -77.4167 11° North 270 311 7,100 2,195 Climbing Potomac TRACON
Tue 09:16:00 AM 39.1786 -77.0626 90° East  Level Estimated
Tue 09:17:00 AM 39.2362 -76.9629 74° East  Level Estimated
Tue 09:17:56 AM 39.1172 -77.2075 78° East 278 320 11,600  Level Washington Center
Tue 09:18:00 AM 39.2937 -76.8630 67° East  Level Estimated
Tue 09:18:56 AM 39.0833 -77.0944 111° Southeast 290 334 13,600  Level Washington Center
Tue 09:19:58 AM 39.0867 -76.9794 88° East 307 353 16,400 2,361 Climbing Washington Center
Tue 09:20:58 AM 39.0964 -76.8567 84° East 326 375 18,400 1,729 Climbing Washington Center
Tue 09:21:56 AM 39.1103 -76.7206 82° East 358 412 19,800 1,780 Climbing Washington Center
Tue 09:22:56 AM 39.1219 -76.5733 84° East 386 444 21,900 1,326 Climbing Washington Center
Tue 09:28:16 AM 39.2450 -75.8120 84° East 100 115 28,200 1,204 Climbing FlightAware
Tue 09:28:25 AM 39.2660 -75.7850 45° Northeast 100 115 28,500 2,000 Climbing FlightAware
Tue 09:29:04 AM 39.3240 -75.7110 45° Northeast 436 502 29,800 1,946 Climbing FlightAware
Tue 09:29:39 AM 39.3720 -75.6480 45° Northeast 436 502 30,900 1,200 Climbing FlightAware
Tue 09:30:04 AM 39.4100 -75.5990 45° Northeast 443 510 31,000 98 Climbing FlightAware
Tue 09:30:40 AM 39.4650 -75.5270 45° Northeast 463 533 31,000  Level FlightAware
Tue 09:31:16 AM 39.5160 -75.4600 45° Northeast 464 534 31,000  Level FlightAware
Tue 09:31:55 AM 39.5790 -75.3810 44° Northeast 460 529 31,000  Level FlightAware
Tue 09:32:30 AM 39.6290 -75.3130 46° Northeast 465 535 31,000  Level FlightAware
Tue 09:33:00 AM 39.6730 -75.2530 46° Northeast 461 531 31,000  Level FlightAware
Tue 09:33:36 AM 39.7190 -75.1870 48° Northeast 460 529 31,000  Level FlightAware
Tue 09:34:28 AM 39.7880 -75.0900 47° Northeast 457 526 31,000  Level FlightAware
Tue 09:35:20 AM 39.8640 -74.9820 47° Northeast 457 526 31,000  Level FlightAware
Tue 09:35:50 AM 39.9180 -74.9040 48° Northeast 460 529 31,000  Level FlightAware
Tue 09:36:25 AM 39.9690 -74.8320 47° Northeast 470 541 31,000  Level FlightAware
Tue 09:37:09 AM 40.0220 -74.7550 48° Northeast 454 522 31,000  Level FlightAware
Tue 09:37:45 AM 40.0650 -74.6930 48° Northeast 454 522 31,000  Level FlightAware
Tue 09:38:21 AM 40.1080 -74.6300 48° Northeast 454 522 31,000  Level FlightAware
Tue 09:38:57 AM 40.1510 -74.5680 48° Northeast 454 522 31,000  Level FlightAware
Tue 09:39:33 AM 40.1940 -74.5050 48° Northeast 454 522 31,000  Level FlightAware
Tue 09:40:09 AM 40.2370 -74.4430 48° Northeast 454 522 31,000  Level FlightAware
Tue 09:40:45 AM 40.2800 -74.3800 48° Northeast 454 522 31,000  Level FlightAware
Tue 09:41:21 AM 40.3230 -74.3180 48° Northeast 454 522 31,000  Level FlightAware
Tue 09:41:58 AM 40.3670 -74.2530 48° Northeast 454 522 31,000  Level FlightAware
Tue 09:42:34 AM 40.4100 -74.1900 48° Northeast 454 522 31,000  Level FlightAware
Tue 09:43:10 AM 40.4530 -74.1280 48° Northeast 454 522 31,000  Level FlightAware
Tue 09:43:46 AM 40.4960 -74.0650 48° Northeast 454 522 31,000  Level FlightAware
Tue 09:44:23 AM 40.5400 -74.0000 48° Northeast 454 522 31,000  Level FlightAware
Tue 09:44:59 AM 40.5830 -73.9370 48° Northeast 454 522 31,000  Level FlightAware
Tue 09:45:35 AM 40.6260 -73.8740 48° Northeast 454 522 31,000  Level FlightAware
Tue 09:46:12 AM 40.6700 -73.8100 48° Northeast 454 522 31,000 -2,600 Level FlightAware
Tue 09:47:05 AM 40.8389 -73.4633 48° Northeast 446 513 27,100 -2,389 Descending Boston Center
Tue 09:48:05 AM 40.9214 -73.3464 47° Northeast 435 501 26,500 -1,729 Descending Boston Center
Tue 09:49:03 AM 41.0219 -73.2656 31° Northeast 399 459 23,700 -2,746 Descending Boston Center
Tue 09:50:03 AM 41.1161 -73.2033 26° Northeast 392 451 21,100 -1,339 Descending Boston Center
Tue 09:51:04 AM 41.2125 -73.1381 27° Northeast 381 438 21,000 -50 Descending Boston Center
Tue 09:52:04 AM 41.2444 -73.0006 73° East 345 397 21,000  Level Boston Center
Tue 09:53:05 AM 41.2575 -72.8486 83° East 362 417 21,000  Level Boston Center
Tue 09:54:03 AM 41.3039 -72.7192 64° Northeast 401 461 21,000  Level Boston Center
Tue 09:55:04 AM 41.3519 -72.5839 65° Northeast 408 470 21,000  Level Boston Center
Tue 09:56:04 AM 41.4000 -72.4428 66° East 413 475 21,000  Level Boston Center
Tue 09:57:04 AM 41.4478 -72.3044 65° Northeast 413 475 21,000  Level Boston Center
Tue 09:58:05 AM 41.5017 -72.1547 64° Northeast 413 475 21,000  Level Boston Center
Tue 09:59:06 AM 41.5492 -72.0186 65° Northeast 413 475 21,000  Level Boston Center
Tue 10:00:03 AM 41.5986 -71.8794 65° Northeast 408 470 21,000 -712 Level Boston Center
Tue 10:01:04 AM 41.6439 -71.7400 66° East 403 464 19,600 -1,736 Descending Boston Center
Tue 10:02:04 AM 41.6908 -71.6061 65° Northeast 398 458 17,500 -2,083 Descending Boston Center
Tue 10:03:05 AM 41.7358 -71.4914 62° Northeast 398 458 15,400 -1,791 Descending Boston Center
Tue 10:04:18 AM 41.7783 -71.3656 66° East 385 443 13,500 -1,924 Descending Boston Center
Tue 10:05:16 AM 41.8269 -71.2197 66° East 366 421 11,200 -1,780 Descending Boston Center
Tue 10:06:16 AM 41.8800 -71.1267 53° Northeast 335 386 10,000 -1,289 Descending Boston Center
Tue 10:07:17 AM 41.9311 -71.0419 51° Northeast 307 353 8,600 -1,488 Descending Boston Center
Tue 10:08:17 AM 41.9886 -70.9625 46° Northeast 276 318 7,000 -1,627 Descending Boston Center
Tue 10:09:15 AM 42.0439 -70.8969 41° Northeast 261 300 5,400 -1,525 Descending Boston Center
Tue 10:10:15 AM 42.1081 -70.8644 21° North 244 281 4,000 -1,190 Descending Boston Center
Tue 10:11:16 AM 42.1728 -70.8714 355° North 225 259 3,000 -640 Descending Boston Center
Tue 10:12:45 AM 42.2500 -70.9000 345° North 165 190 2,400 -403 Descending KA90
Tue 10:13:45 AM 42.2833 -70.9167 340° North 146 168 2,000 -650 Descending KA90
Tue 10:14:45 AM 42.3167 -70.9500 324° Northwest 116 133 1,100 -750 Descending KA90
Tue 10:15:45 AM 42.3333 -70.9833 304° West 112 129 500 -600 Descending KA90

Login

Don't have an account? Register now (free) for customized features, flight alerts, and more!